CheckWX is a tool to help pilots better visualize weather data.  It is not intended as a substitute for an official pre-flight weather briefing.

14:18:33 UTC

KLAR METAR
Laramie Regional Airport
Laramie, Wyoming, USA
Current

26 mins ago

KLAR 251353Z AUTO 00000KT 10SM CLR 03/02 A3023 RMK AO2 SLP184 T00280017 $
Observed
Apr-25 @ 13:53 UTC
Visibility
10 SM
Flight Rules
VFR
Cloud Levels
  • Clear skies
Temperature
C / 37°F
Dewpoint
C / 36°F
Humidity
93%
Altimeter
30.23" Hg
Pressure
1023.72 hPa
Previous

1 hour ago

KLAR 251253Z AUTO 16003KT 8SM CLR 01/01 A3022 RMK AO2 SLP181 T00060006 $
Observed
Apr-25 @ 12:53 UTC
Wind
  • 160° at 3 KTS
Visibility
8 SM
Flight Rules
VFR
Cloud Levels
  • Clear skies
Temperature
C / 34°F
Dewpoint
C / 34°F
Humidity
100%
Altimeter
30.22" Hg
Pressure
1023.42 hPa
Previous

2 hours ago

KLAR 251153Z AUTO 11003KT 10SM CLR 01/00 A3021 RMK AO2 SLP169 60003 70003 T00060000 10061 20006 53014 $
Observed
Apr-25 @ 11:53 UTC
Wind
  • 110° at 3 KTS
Visibility
10 SM
Flight Rules
VFR
Cloud Levels
  • Clear skies
Temperature
C / 34°F
Dewpoint
C / 32°F
Humidity
93%
Altimeter
30.21" Hg
Pressure
1023.02 hPa
24 Hour Rain
0.03"